Liberty of The Seas — C6VQ8 — position and weather

sailwx.info

Track history (hours):
 
Tides and Currents Weather Stations Pressure Air Temp Water Temp Dewpoint Dewpoint Depression Visibility Wind Speed Wind Dir Waves Ship Positions

Liberty of The Seas

Last reported at 2015-May-04 17:34 UTC. Time now 2015-May-05 21:20 UTC.
Position N 26°51' W 079°44'.

Type: Passenger vessel. MMSI: 309436000.

Date/timePositionNaut miles runAvg speedWind from/ knotsBaromVisibWave heightAir tempDewpointWater temp
2015-May-04 17:34N 26°51' W 079°44'2523.7
2015-May-04 16:29N 26°27' W 079°50'2122.9
2015-May-04 15:33N 26°07' W 080°01'6 5.9
2015-May-04 14:33N 26°05' W 080°07'0 0.0
2015-May-04 13:33N 26°05' W 080°07'0 0.0
2015-May-04 12:33N 26°05' W 080°07'0 0.0
2015-May-04 11:24N 26°05' W 080°07'0 0.0
2015-May-04 10:24N 26°05' W 080°07'0 0.1
2015-May-04 09:33N 26°05' W 080°07'8 7.7
2015-May-04 08:33N 26°01' W 080°00'1515.1
2015-May-04 07:33N 25°47' W 079°55'50315.2
2015-May-02 22:33N 20°29' W 086°59'0 0.3
2015-May-02 21:31N 20°29' W 086°59'0 0.0
2015-May-02 20:31N 20°29' W 086°59'0 0.0
2015-May-02 19:31N 20°29' W 086°59'0 0.0
2015-May-02 18:31N 20°29' W 086°59'0 0.0
2015-May-02 17:25N 20°29' W 086°59'0 0.0
2015-May-02 16:28N 20°29' W 086°59'0 0.0
2015-May-02 15:28N 20°29' W 086°59'0 0.0
2015-May-02 14:28N 20°29' W 086°59'0 0.0
2015-May-02 13:28N 20°29' W 086°59'0 0.0
2015-May-02 12:22N 20°29' W 086°59'0 0.0
2015-May-02 11:34N 20°29' W 086°59'50113.5
2015-Apr-30 22:33N 25°52' W 080°02'1414.1
2015-Apr-30 21:34N 26°06' W 080°05'2 1.5
2015-Apr-30 20:31N 26°05' W 080°07'0 0.0
2015-Apr-30 19:31N 26°05' W 080°07'0 0.0
2015-Apr-30 18:31N 26°05' W 080°07'0 0.0
2015-Apr-30 17:31N 26°05' W 080°07'0 0.0
2015-Apr-30 16:31N 26°05' W 080°07'0 0.0
2015-Apr-30 15:22N 26°05' W 080°07'0 0.0
2015-Apr-30 14:22N 26°05' W 080°07'0 0.0
2015-Apr-30 13:25N 26°05' W 080°07'0 0.0
2015-Apr-30 12:25N 26°05' W 080°07'0 0.0
2015-Apr-30 11:28N 26°05' W 080°07'0 0.3
2015-Apr-30 10:33N 26°06' W 080°07'9 9.2
2015-Apr-30 09:33N 26°01' W 079°58'1615.6
2015-Apr-30 08:33N 25°46' W 079°54'50115.2
2015-Apr-28 23:33N 20°31' W 086°58'2 2.2
2015-Apr-28 22:32N 20°29' W 086°59'0 0.0
2015-Apr-28 21:23N 20°29' W 086°59'0 0.0
2015-Apr-28 20:29N 20°29' W 086°59'0 0.0
2015-Apr-28 19:23N 20°29' W 086°59'0 0.0
2015-Apr-28 18:32N 20°29' W 086°59'0 0.0
2015-Apr-28 17:32N 20°29' W 086°59'0 0.0
2015-Apr-28 16:32N 20°29' W 086°59'0 0.0
2015-Apr-28 15:32N 20°29' W 086°59'0 0.0
2015-Apr-28 14:32N 20°29' W 086°59'0 0.0
2015-Apr-28 13:32N 20°29' W 086°59'1 1.5
2015-Apr-28 12:33N 20°28' W 086°60'  
2015-Apr-26 06:15N 24°14' W 081°52'2218.6
2015-Apr-26 05:03N 24°22' W 081°29'918.8
2015-Apr-26 04:33N 24°26' W 081°20'1919.0
2015-Apr-26 03:33N 24°33' W 081°00'9117.2
2015-Apr-25 22:14N 25°46' W 080°00'1116.8
2015-Apr-25 21:33N 25°58' W 080°02'9 8.7
2015-Apr-25 20:33N 26°05' W 080°07'0 0.0
2015-Apr-25 19:31N 26°05' W 080°07'0 0.0
2015-Apr-25 18:19N 26°05' W 080°07'0 0.0
2015-Apr-25 17:22N 26°05' W 080°07'0 0.0
2015-Apr-25 16:22N 26°05' W 080°07'0 0.0
2015-Apr-25 15:22N 26°05' W 080°07'0 0.0
2015-Apr-25 14:25N 26°05' W 080°07'0 0.0
2015-Apr-25 13:25N 26°05' W 080°07'0 0.0
2015-Apr-25 12:28N 26°05' W 080°07'0 0.0
2015-Apr-25 11:28N 26°05' W 080°07'0 0.3
2015-Apr-25 10:33N 26°06' W 080°07'10 9.8
2015-Apr-25 09:33N 25°59' W 079°59'2219.8
2015-Apr-25 08:27N 25°38' W 079°53'  
Track history (hours):
 
Tides and Currents Weather Stations Pressure Air Temp Water Temp Dewpoint Dewpoint Depression Visibility Wind Speed Wind Dir Waves Ship Positions

Liberty of The Seas

Last reported at 2015-May-04 17:34 UTC. Time now 2015-May-05 21:20 UTC.
Position N 26°51' W 079°44'.

Type: Passenger vessel. MMSI: 309436000.

Date/timePositionNaut miles runAvg speedWind from/ knotsBaromVisibWave heightAir tempDewpointWater temp
2015-May-04 17:34N 26°51' W 079°44'2523.7
2015-May-04 16:29N 26°27' W 079°50'2122.9
2015-May-04 15:33N 26°07' W 080°01'6 5.9
2015-May-04 14:33N 26°05' W 080°07'0 0.0
2015-May-04 13:33N 26°05' W 080°07'0 0.0
2015-May-04 12:33N 26°05' W 080°07'0 0.0
2015-May-04 11:24N 26°05' W 080°07'0 0.0
2015-May-04 10:24N 26°05' W 080°07'0 0.1
2015-May-04 09:33N 26°05' W 080°07'8 7.7
2015-May-04 08:33N 26°01' W 080°00'1515.1
2015-May-04 07:33N 25°47' W 079°55'50315.2
2015-May-02 22:33N 20°29' W 086°59'0 0.3
2015-May-02 21:31N 20°29' W 086°59'0 0.0
2015-May-02 20:31N 20°29' W 086°59'0 0.0
2015-May-02 19:31N 20°29' W 086°59'0 0.0
2015-May-02 18:31N 20°29' W 086°59'0 0.0
2015-May-02 17:25N 20°29' W 086°59'0 0.0
2015-May-02 16:28N 20°29' W 086°59'0 0.0
2015-May-02 15:28N 20°29' W 086°59'0 0.0
2015-May-02 14:28N 20°29' W 086°59'0 0.0
2015-May-02 13:28N 20°29' W 086°59'0 0.0
2015-May-02 12:22N 20°29' W 086°59'0 0.0
2015-May-02 11:34N 20°29' W 086°59'50113.5
2015-Apr-30 22:33N 25°52' W 080°02'1414.1
2015-Apr-30 21:34N 26°06' W 080°05'2 1.5
2015-Apr-30 20:31N 26°05' W 080°07'0 0.0
2015-Apr-30 19:31N 26°05' W 080°07'0 0.0
2015-Apr-30 18:31N 26°05' W 080°07'0 0.0
2015-Apr-30 17:31N 26°05' W 080°07'0 0.0
2015-Apr-30 16:31N 26°05' W 080°07'0 0.0
2015-Apr-30 15:22N 26°05' W 080°07'0 0.0
2015-Apr-30 14:22N 26°05' W 080°07'0 0.0
2015-Apr-30 13:25N 26°05' W 080°07'0 0.0
2015-Apr-30 12:25N 26°05' W 080°07'0 0.0
2015-Apr-30 11:28N 26°05' W 080°07'0 0.3
2015-Apr-30 10:33N 26°06' W 080°07'9 9.2
2015-Apr-30 09:33N 26°01' W 079°58'1615.6
2015-Apr-30 08:33N 25°46' W 079°54'50115.2
2015-Apr-28 23:33N 20°31' W 086°58'2 2.2
2015-Apr-28 22:32N 20°29' W 086°59'0 0.0
2015-Apr-28 21:23N 20°29' W 086°59'0 0.0
2015-Apr-28 20:29N 20°29' W 086°59'0 0.0
2015-Apr-28 19:23N 20°29' W 086°59'0 0.0
2015-Apr-28 18:32N 20°29' W 086°59'0 0.0
2015-Apr-28 17:32N 20°29' W 086°59'0 0.0
2015-Apr-28 16:32N 20°29' W 086°59'0 0.0
2015-Apr-28 15:32N 20°29' W 086°59'0 0.0
2015-Apr-28 14:32N 20°29' W 086°59'0 0.0
2015-Apr-28 13:32N 20°29' W 086°59'1 1.5
2015-Apr-28 12:33N 20°28' W 086°60'  
2015-Apr-26 06:15N 24°14' W 081°52'2218.6
2015-Apr-26 05:03N 24°22' W 081°29'918.8
2015-Apr-26 04:33N 24°26' W 081°20'1919.0
2015-Apr-26 03:33N 24°33' W 081°00'9117.2
2015-Apr-25 22:14N 25°46' W 080°00'1116.8
2015-Apr-25 21:33N 25°58' W 080°02'9 8.7
2015-Apr-25 20:33N 26°05' W 080°07'0 0.0
2015-Apr-25 19:31N 26°05' W 080°07'0 0.0
2015-Apr-25 18:19N 26°05' W 080°07'0 0.0
2015-Apr-25 17:22N 26°05' W 080°07'0 0.0
2015-Apr-25 16:22N 26°05' W 080°07'0 0.0
2015-Apr-25 15:22N 26°05' W 080°07'0 0.0
2015-Apr-25 14:25N 26°05' W 080°07'0 0.0
2015-Apr-25 13:25N 26°05' W 080°07'0 0.0
2015-Apr-25 12:28N 26°05' W 080°07'0 0.0
2015-Apr-25 11:28N 26°05' W 080°07'0 0.3
2015-Apr-25 10:33N 26°06' W 080°07'10 9.8
2015-Apr-25 09:33N 25°59' W 079°59'2219.8
2015-Apr-25 08:27N 25°38' W 079°53'  

Dump ship's entire track history